createdAt,value
2022-12-25T00:01:50.274Z,101218.00
2022-12-25T00:04:16.856Z,101215.00
2022-12-25T00:06:43.701Z,101220.00
2022-12-25T00:09:10.508Z,101215.00
2022-12-25T00:11:40.713Z,101217.00
2022-12-25T00:14:07.414Z,101221.00
2022-12-25T00:16:34.242Z,101224.00
2022-12-25T00:19:01.504Z,101220.00
2022-12-25T00:21:28.786Z,101229.00
2022-12-25T00:23:57.713Z,101232.00
2022-12-25T00:26:25.549Z,101206.00
2022-12-25T00:28:57.152Z,101219.00
2022-12-25T00:31:24.921Z,101236.00
2022-12-25T00:33:52.366Z,101234.00
2022-12-25T00:36:21.266Z,101232.00
2022-12-25T00:38:48.328Z,101229.00
2022-12-25T00:41:17.764Z,101237.00
2022-12-25T00:43:44.433Z,101250.00
2022-12-25T00:46:13.250Z,101249.00
2022-12-25T00:48:40.610Z,101244.00
2022-12-25T00:51:10.624Z,101245.00
2022-12-25T00:53:37.120Z,101246.00
2022-12-25T00:56:06.457Z,101245.00
2022-12-25T00:58:34.146Z,101263.00
2022-12-25T01:01:01.321Z,101263.00
2022-12-25T01:03:28.297Z,101268.00
2022-12-25T01:06:03.894Z,101270.00
2022-12-25T01:08:32.738Z,101278.00
2022-12-25T01:11:02.007Z,101272.00
2022-12-25T01:13:29.415Z,101275.00
2022-12-25T01:15:56.124Z,101279.00
2022-12-25T01:18:25.597Z,101276.00
2022-12-25T01:20:52.302Z,101274.00
2022-12-25T01:23:18.916Z,101288.00
2022-12-25T01:25:45.452Z,101287.00
2022-12-25T01:28:12.064Z,101297.00
2022-12-25T01:30:39.641Z,101297.00
2022-12-25T01:33:06.433Z,101298.00
2022-12-25T01:35:32.957Z,101297.00
2022-12-25T01:37:59.616Z,101310.00
2022-12-25T01:40:26.130Z,101306.00
2022-12-25T01:42:53.138Z,101313.00
2022-12-25T01:45:44.546Z,101319.00
2022-12-25T01:48:18.211Z,101307.00
2022-12-25T01:50:50.414Z,101311.00
2022-12-25T01:53:17.121Z,101308.00
2022-12-25T01:55:45.684Z,101302.00
2022-12-25T01:58:12.537Z,101311.00
2022-12-25T02:00:39.130Z,101300.00
2022-12-25T02:03:06.441Z,101312.00
2022-12-25T02:05:35.041Z,101319.00
2022-12-25T02:08:08.129Z,101319.00
2022-12-25T02:10:34.682Z,101323.00
2022-12-25T02:13:02.075Z,101328.00
2022-12-25T02:15:38.836Z,101325.00
2022-12-25T02:18:16.798Z,101323.00
2022-12-25T02:20:56.717Z,101324.00
2022-12-25T02:23:42.171Z,101327.00
2022-12-25T02:26:47.704Z,101328.00
2022-12-25T02:29:33.184Z,101325.00
2022-12-25T02:32:10.550Z,101333.00
2022-12-25T02:35:07.554Z,101337.00
2022-12-25T02:37:42.365Z,101336.00
2022-12-25T02:40:18.627Z,101330.00
2022-12-25T02:43:08.754Z,101341.00
2022-12-25T02:46:01.062Z,101338.00
2022-12-25T02:48:50.680Z,101337.00
2022-12-25T02:51:38.994Z,101358.00
2022-12-25T02:54:29.554Z,101348.00
2022-12-25T02:57:16.700Z,101341.00
2022-12-25T03:00:05.114Z,101335.00
2022-12-25T03:02:52.639Z,101356.00
2022-12-25T03:05:40.361Z,101345.00
2022-12-25T03:08:11.526Z,101341.00
2022-12-25T03:11:02.959Z,101343.00
2022-12-25T03:13:34.558Z,101335.00
2022-12-25T03:16:19.813Z,101335.00
2022-12-25T03:18:46.680Z,101347.00
2022-12-25T03:21:31.788Z,101339.00
2022-12-25T03:24:20.576Z,101348.00
2022-12-25T03:26:56.450Z,101355.00
2022-12-25T03:29:50.962Z,101356.00
2022-12-25T03:32:43.105Z,101364.00
2022-12-25T03:35:29.718Z,101365.00
2022-12-25T03:38:29.838Z,101368.00
2022-12-25T03:41:38.321Z,101364.00
2022-12-25T03:44:50.794Z,101362.00
2022-12-25T03:47:35.461Z,101374.00
2022-12-25T03:50:27.940Z,101378.00
2022-12-25T03:53:15.781Z,101373.00
2022-12-25T03:56:02.838Z,101373.00
2022-12-25T03:58:47.918Z,101381.00
2022-12-25T04:01:33.041Z,101395.00
2022-12-25T04:04:18.844Z,101393.00
2022-12-25T04:07:04.176Z,101391.00
2022-12-25T04:09:49.197Z,101392.00
2022-12-25T04:12:34.390Z,101394.00
2022-12-25T04:15:19.835Z,101381.00
2022-12-25T04:18:05.138Z,101389.00
2022-12-25T04:20:50.554Z,101399.00
2022-12-25T04:23:35.851Z,101402.00
2022-12-25T04:26:20.770Z,101393.00
2022-12-25T04:29:05.677Z,101389.00
2022-12-25T04:31:50.450Z,101386.00
2022-12-25T04:34:35.476Z,101403.00
2022-12-25T04:37:02.043Z,101400.00
2022-12-25T04:39:28.628Z,101406.00
2022-12-25T04:41:55.224Z,101414.00
2022-12-25T04:44:21.682Z,101409.00
2022-12-25T04:46:48.429Z,101413.00
2022-12-25T04:49:15.114Z,101417.00
2022-12-25T04:51:41.848Z,101410.00
2022-12-25T04:54:08.364Z,101406.00
2022-12-25T04:56:40.062Z,101397.00
2022-12-25T04:59:10.079Z,101402.00
2022-12-25T05:01:36.830Z,101397.00
2022-12-25T05:04:03.573Z,101394.00
2022-12-25T05:06:30.229Z,101391.00
2022-12-25T05:08:56.758Z,101389.00
2022-12-25T05:11:23.286Z,101394.00
2022-12-25T05:13:49.852Z,101395.00
2022-12-25T05:16:18.812Z,101385.00
2022-12-25T05:18:48.391Z,101399.00
2022-12-25T05:21:15.497Z,101399.00
2022-12-25T05:23:48.658Z,101399.00
2022-12-25T05:26:17.304Z,101397.00
2022-12-25T05:28:44.041Z,101390.00
2022-12-25T05:31:11.358Z,101395.00
2022-12-25T05:33:38.042Z,101390.00
2022-12-25T05:36:06.533Z,101393.00
2022-12-25T05:38:33.565Z,101379.00
2022-12-25T05:41:00.361Z,101392.00
2022-12-25T05:43:28.491Z,101386.00
2022-12-25T05:45:55.364Z,101384.00
2022-12-25T05:48:22.148Z,101378.00
2022-12-25T05:50:49.015Z,101383.00
2022-12-25T05:53:17.595Z,101391.00
2022-12-25T05:55:44.342Z,101384.00
2022-12-25T05:58:12.054Z,101368.00
2022-12-25T06:00:41.364Z,101374.00
2022-12-25T06:03:08.107Z,101380.00
2022-12-25T06:05:37.745Z,101367.00
2022-12-25T06:08:04.463Z,101358.00
2022-12-25T06:10:33.587Z,101340.00
2022-12-25T06:13:00.938Z,101339.00
2022-12-25T06:15:27.741Z,101338.00
2022-12-25T06:17:54.358Z,101362.00
2022-12-25T06:20:20.982Z,101338.00
2022-12-25T06:22:47.798Z,101341.00
2022-12-25T06:25:14.680Z,101361.00
2022-12-25T06:27:41.242Z,101346.00
2022-12-25T06:30:08.553Z,101356.00
2022-12-25T06:32:35.173Z,101352.00
2022-12-25T06:35:01.769Z,101348.00
2022-12-25T06:37:28.461Z,101349.00
2022-12-25T06:39:55.158Z,101359.00
2022-12-25T06:42:21.773Z,101361.00
2022-12-25T06:44:48.300Z,101370.00
2022-12-25T06:47:14.944Z,101375.00
2022-12-25T06:49:41.689Z,101361.00
2022-12-25T06:52:08.293Z,101358.00
2022-12-25T06:54:34.853Z,101377.00
2022-12-25T06:57:01.434Z,101368.00
2022-12-25T06:59:27.992Z,101375.00
2022-12-25T07:01:56.681Z,101387.00
2022-12-25T07:04:28.339Z,101377.00
2022-12-25T07:06:54.871Z,101388.00
2022-12-25T07:09:23.643Z,101383.00
2022-12-25T07:11:50.259Z,101392.00
2022-12-25T07:14:24.416Z,101414.00
2022-12-25T07:16:54.611Z,101403.00
2022-12-25T07:19:21.749Z,101416.00
2022-12-25T07:21:48.475Z,101413.00
2022-12-25T07:24:20.588Z,101416.00
2022-12-25T07:26:47.923Z,101415.00
2022-12-25T07:29:14.573Z,101408.00
2022-12-25T07:31:41.472Z,101424.00
2022-12-25T07:34:08.241Z,101423.00
2022-12-25T07:36:34.915Z,101435.00
2022-12-25T07:39:01.716Z,101438.00
2022-12-25T07:41:29.571Z,101429.00
2022-12-25T07:43:56.239Z,101423.00
2022-12-25T07:46:23.476Z,101416.00
2022-12-25T07:48:50.101Z,101409.00
2022-12-25T07:51:16.704Z,101410.00
2022-12-25T07:53:44.394Z,101402.00
2022-12-25T07:56:16.905Z,101411.00
2022-12-25T07:58:44.627Z,101405.00
2022-12-25T08:01:18.386Z,101408.00
2022-12-25T08:03:49.752Z,101412.00
2022-12-25T08:06:16.489Z,101414.00
2022-12-25T08:08:43.022Z,101421.00
2022-12-25T08:11:10.680Z,101419.00
2022-12-25T08:13:37.627Z,101414.00
2022-12-25T08:16:07.969Z,101423.00
2022-12-25T08:18:37.076Z,101414.00
2022-12-25T08:21:12.195Z,101421.00
2022-12-25T08:23:41.546Z,101443.00
2022-12-25T08:26:10.767Z,101435.00
2022-12-25T08:28:37.796Z,101425.00
2022-12-25T08:31:17.104Z,101419.00
2022-12-25T08:33:44.300Z,101411.00
2022-12-25T08:36:12.484Z,101416.00
2022-12-25T08:38:39.761Z,101413.00
2022-12-25T08:41:06.907Z,101418.00
2022-12-25T08:43:33.935Z,101404.00
2022-12-25T08:46:00.621Z,101403.00
2022-12-25T08:48:27.619Z,101400.00
2022-12-25T08:50:54.587Z,101406.00
2022-12-25T08:53:21.959Z,101402.00
2022-12-25T08:55:48.966Z,101394.00
2022-12-25T08:58:16.872Z,101397.00
2022-12-25T09:00:43.409Z,101392.00
2022-12-25T09:03:10.007Z,101380.00
2022-12-25T09:05:37.372Z,101373.00
2022-12-25T09:08:06.784Z,101369.00
2022-12-25T09:10:37.115Z,101373.00
2022-12-25T09:13:05.833Z,101359.00
2022-12-25T09:15:32.643Z,101359.00
2022-12-25T09:18:00.267Z,101363.00
2022-12-25T09:20:28.248Z,101359.00
2022-12-25T09:22:54.759Z,101363.00
2022-12-25T09:25:21.255Z,101363.00
2022-12-25T09:27:47.953Z,101365.00
2022-12-25T09:30:15.189Z,101368.00
2022-12-25T09:32:44.674Z,101368.00
2022-12-25T09:35:13.927Z,101376.00
2022-12-25T09:37:40.978Z,101376.00
2022-12-25T09:40:08.422Z,101372.00
2022-12-25T09:42:35.231Z,101363.00
2022-12-25T09:45:10.945Z,101348.00
2022-12-25T09:47:42.012Z,101364.00
2022-12-25T09:50:46.032Z,101351.00
2022-12-25T09:53:19.034Z,101357.00
2022-12-25T09:56:19.354Z,101349.00
2022-12-25T09:58:45.886Z,101369.00
2022-12-25T10:01:14.646Z,101366.00
2022-12-25T10:03:59.650Z,101370.00
2022-12-25T10:06:56.680Z,101370.00
2022-12-25T10:09:39.053Z,101372.00
2022-12-25T10:12:27.505Z,101382.00
2022-12-25T10:15:23.058Z,101377.00
2022-12-25T10:18:03.551Z,101379.00
2022-12-25T10:20:53.204Z,101382.00
2022-12-25T10:23:25.570Z,101382.00
2022-12-25T10:25:53.812Z,101374.00
2022-12-25T10:28:34.005Z,101361.00
2022-12-25T10:31:23.553Z,101359.00
2022-12-25T10:33:59.499Z,101352.00
2022-12-25T10:36:39.667Z,101336.00
2022-12-25T10:39:06.229Z,101337.00
2022-12-25T10:41:54.294Z,101339.00
2022-12-25T10:44:24.570Z,101328.00
2022-12-25T10:46:55.091Z,101320.00
2022-12-25T10:49:25.368Z,101326.00
2022-12-25T10:51:52.220Z,101318.00
2022-12-25T10:54:21.931Z,101318.00
2022-12-25T10:57:00.763Z,101311.00
2022-12-25T10:59:29.581Z,101313.00
2022-12-25T11:02:03.515Z,101320.00
2022-12-25T11:04:37.408Z,101314.00
2022-12-25T11:07:13.307Z,101317.00
2022-12-25T11:09:41.041Z,101316.00
2022-12-25T11:12:18.110Z,101322.00
2022-12-25T11:14:56.910Z,101326.00
2022-12-25T11:17:25.629Z,101326.00
2022-12-25T11:19:55.130Z,101327.00
2022-12-25T11:22:25.256Z,101334.00
2022-12-25T11:24:52.199Z,101321.00
2022-12-25T11:27:24.793Z,101324.00
2022-12-25T11:30:03.568Z,101332.00
2022-12-25T11:32:43.622Z,101341.00
2022-12-25T11:35:16.102Z,101330.00
2022-12-25T11:37:49.580Z,101306.00
2022-12-25T11:40:20.759Z,101296.00
2022-12-25T11:42:57.480Z,101284.00
2022-12-25T11:45:33.484Z,101289.00
2022-12-25T11:48:03.308Z,101281.00
2022-12-25T11:50:41.106Z,101256.00
2022-12-25T11:53:35.095Z,101238.00
2022-12-25T11:56:06.967Z,101221.00
2022-12-25T11:58:38.785Z,101208.00
2022-12-25T12:01:26.801Z,101191.00
2022-12-25T12:03:54.583Z,101197.00
2022-12-25T12:06:32.969Z,101202.00
2022-12-25T12:09:36.443Z,101203.00
2022-12-25T12:12:17.029Z,101212.00
2022-12-25T12:14:55.855Z,101227.00
2022-12-25T12:17:22.403Z,101232.00
2022-12-25T12:19:50.145Z,101229.00
2022-12-25T12:22:23.892Z,101238.00
2022-12-25T12:25:04.478Z,101242.00
2022-12-25T12:27:36.606Z,101231.00
2022-12-25T12:30:05.764Z,101225.00
2022-12-25T12:32:42.299Z,101227.00
2022-12-25T12:35:11.716Z,101230.00
2022-12-25T12:37:40.807Z,101213.00
2022-12-25T12:40:27.363Z,101215.00
2022-12-25T12:42:56.970Z,101205.00
2022-12-25T12:45:28.045Z,101198.00
2022-12-25T12:47:55.441Z,101211.00
2022-12-25T12:50:41.187Z,101200.00
2022-12-25T12:53:23.508Z,101202.00
2022-12-25T12:55:52.443Z,101200.00
2022-12-25T12:58:33.716Z,101204.00
2022-12-25T13:01:23.999Z,101198.00
2022-12-25T13:04:06.385Z,101193.00
2022-12-25T13:06:40.784Z,101198.00
2022-12-25T13:09:45.357Z,101211.00
2022-12-25T13:12:15.513Z,101197.00
2022-12-25T13:14:51.141Z,101183.00
2022-12-25T13:17:23.550Z,101185.00
2022-12-25T13:20:00.637Z,101190.00
2022-12-25T13:22:33.454Z,101192.00
2022-12-25T13:25:02.880Z,101190.00
2022-12-25T13:27:31.573Z,101182.00
2022-12-25T13:29:59.273Z,101185.00
2022-12-25T13:32:30.864Z,101186.00
2022-12-25T13:34:58.438Z,101172.00
2022-12-25T13:37:27.645Z,101171.00
2022-12-25T13:39:58.980Z,101164.00
2022-12-25T13:42:28.714Z,101146.00
2022-12-25T13:44:58.647Z,101153.00
2022-12-25T13:47:28.777Z,101154.00
2022-12-25T13:49:57.235Z,101158.00
2022-12-25T13:52:36.234Z,101153.00
2022-12-25T13:55:10.953Z,101140.00
2022-12-25T13:57:39.925Z,101129.00
2022-12-25T14:00:08.871Z,101125.00
2022-12-25T14:02:38.073Z,101126.00
2022-12-25T14:05:32.399Z,101113.00
2022-12-25T14:08:17.205Z,101116.00
2022-12-25T14:10:46.381Z,101111.00
2022-12-25T14:13:15.465Z,101128.00
2022-12-25T14:15:43.089Z,101116.00
2022-12-25T14:18:15.888Z,101125.00
2022-12-25T14:20:59.082Z,101123.00
2022-12-25T14:23:25.892Z,101123.00
2022-12-25T14:25:52.915Z,101109.00
2022-12-25T14:28:23.828Z,101091.00
2022-12-25T14:30:51.033Z,101116.00
2022-12-25T14:33:21.082Z,101122.00
2022-12-25T14:35:48.466Z,101132.00
2022-12-25T14:38:29.665Z,101128.00
2022-12-25T14:41:00.895Z,101117.00
2022-12-25T14:43:28.686Z,101117.00
2022-12-25T14:46:06.973Z,101117.00
2022-12-25T14:48:36.355Z,101107.00
2022-12-25T14:51:15.749Z,101093.00
2022-12-25T14:53:51.717Z,101085.00
2022-12-25T14:56:23.055Z,101081.00
2022-12-25T14:58:53.232Z,101089.00
2022-12-25T15:01:23.486Z,101087.00
2022-12-25T15:03:50.729Z,101101.00
2022-12-25T15:06:27.779Z,101087.00
2022-12-25T15:09:00.373Z,101068.00
2022-12-25T15:11:27.731Z,101070.00
2022-12-25T15:13:54.827Z,101074.00
2022-12-25T15:16:28.745Z,101059.00
2022-12-25T15:18:55.521Z,101061.00
2022-12-25T15:21:26.466Z,101067.00
2022-12-25T15:23:58.040Z,101072.00
2022-12-25T15:26:26.417Z,101064.00
2022-12-25T15:28:55.794Z,101072.00
2022-12-25T15:31:33.263Z,101075.00
2022-12-25T15:34:02.411Z,101073.00
2022-12-25T15:36:30.172Z,101068.00
2022-12-25T15:38:56.915Z,101071.00
2022-12-25T15:41:48.442Z,101080.00
2022-12-25T15:44:16.599Z,101061.00
2022-12-25T15:46:43.443Z,101048.00
2022-12-25T15:49:11.568Z,101046.00
2022-12-25T15:51:38.790Z,101046.00
2022-12-25T15:54:05.567Z,101033.00
2022-12-25T15:56:40.802Z,101033.00
2022-12-25T15:59:09.211Z,101023.00
2022-12-25T16:01:36.381Z,101027.00
2022-12-25T16:04:04.509Z,101035.00
2022-12-25T16:06:31.018Z,101030.00
2022-12-25T16:08:57.537Z,101023.00
2022-12-25T16:11:24.241Z,101010.00
2022-12-25T16:13:50.908Z,101012.00
2022-12-25T16:16:17.540Z,101006.00
2022-12-25T16:18:47.739Z,101012.00
2022-12-25T16:21:17.489Z,101006.00
2022-12-25T16:23:44.036Z,100992.00
2022-12-25T16:26:12.936Z,100990.00
2022-12-25T16:28:39.716Z,100985.00
2022-12-25T16:31:06.340Z,100995.00
2022-12-25T16:33:33.093Z,101003.00
2022-12-25T16:36:00.060Z,100993.00
2022-12-25T16:38:26.770Z,100985.00
2022-12-25T16:40:59.225Z,100985.00
2022-12-25T16:43:25.770Z,100956.00
2022-12-25T16:45:52.634Z,100972.00
2022-12-25T16:48:20.342Z,100948.00
2022-12-25T16:50:47.146Z,100937.00
2022-12-25T16:53:13.873Z,100943.00
2022-12-25T16:55:40.566Z,100931.00
2022-12-25T16:58:07.176Z,100922.00
2022-12-25T17:00:33.883Z,100935.00
2022-12-25T17:03:01.122Z,100926.00
2022-12-25T17:05:27.876Z,100924.00
2022-12-25T17:07:54.562Z,100916.00
2022-12-25T17:10:21.501Z,100913.00
2022-12-25T17:12:48.095Z,100916.00
2022-12-25T17:15:16.194Z,100904.00
2022-12-25T17:17:42.751Z,100901.00
2022-12-25T17:20:09.625Z,100916.00
2022-12-25T17:22:36.255Z,100913.00
2022-12-25T17:25:02.825Z,100901.00
2022-12-25T17:27:29.332Z,100901.00
2022-12-25T17:29:55.832Z,100900.00
2022-12-25T17:32:22.505Z,100906.00
2022-12-25T17:34:49.245Z,100905.00
2022-12-25T17:37:15.909Z,100901.00
2022-12-25T17:39:42.594Z,100899.00
2022-12-25T17:42:09.096Z,100882.00
2022-12-25T17:44:36.990Z,100889.00
2022-12-25T17:47:03.963Z,100864.00
2022-12-25T17:49:31.195Z,100869.00
2022-12-25T17:51:59.042Z,100845.00
2022-12-25T17:54:25.944Z,100843.00
2022-12-25T17:56:52.619Z,100835.00
2022-12-25T17:59:19.377Z,100843.00
2022-12-25T18:01:47.370Z,100821.00
2022-12-25T18:04:14.229Z,100819.00
2022-12-25T18:06:41.902Z,100821.00
2022-12-25T18:09:09.880Z,100817.00
2022-12-25T18:11:42.294Z,100807.00
2022-12-25T18:14:13.557Z,100797.00
2022-12-25T18:16:43.537Z,100803.00
2022-12-25T18:19:16.185Z,100788.00
2022-12-25T18:21:43.049Z,100789.00
2022-12-25T18:24:09.927Z,100800.00
2022-12-25T18:26:37.064Z,100808.00
2022-12-25T18:29:03.897Z,100802.00
2022-12-25T18:31:30.945Z,100799.00
2022-12-25T18:33:58.988Z,100809.00
2022-12-25T18:36:28.179Z,100799.00
2022-12-25T18:38:56.010Z,100793.00
2022-12-25T18:41:23.371Z,100785.00
2022-12-25T18:43:53.159Z,100772.00
2022-12-25T18:46:24.801Z,100765.00
2022-12-25T18:48:55.001Z,100762.00
2022-12-25T18:51:21.788Z,100744.00
2022-12-25T18:53:48.497Z,100746.00
2022-12-25T18:56:18.835Z,100739.00
2022-12-25T18:58:47.544Z,100709.00
2022-12-25T19:01:22.862Z,100706.00
2022-12-25T19:03:57.202Z,100702.00
2022-12-25T19:06:29.226Z,100710.00
2022-12-25T19:08:57.012Z,100711.00
2022-12-25T19:11:23.959Z,100702.00
2022-12-25T19:13:50.769Z,100709.00
2022-12-25T19:16:17.971Z,100712.00
2022-12-25T19:18:44.518Z,100701.00
2022-12-25T19:21:11.293Z,100689.00
2022-12-25T19:23:38.638Z,100690.00
2022-12-25T19:26:07.015Z,100695.00
2022-12-25T19:28:33.688Z,100684.00
2022-12-25T19:31:02.325Z,100671.00
2022-12-25T19:33:31.887Z,100678.00
2022-12-25T19:36:06.157Z,100670.00
2022-12-25T19:38:34.545Z,100664.00
2022-12-25T19:41:07.948Z,100654.00
2022-12-25T19:43:40.783Z,100654.00
2022-12-25T19:46:10.514Z,100646.00
2022-12-25T19:48:37.689Z,100675.00
2022-12-25T19:51:05.010Z,100651.00
2022-12-25T19:53:31.592Z,100651.00
2022-12-25T19:56:01.694Z,100661.00
2022-12-25T19:58:28.518Z,100654.00
2022-12-25T20:01:05.282Z,100642.00
2022-12-25T20:03:33.295Z,100654.00
2022-12-25T20:06:02.076Z,100659.00
2022-12-25T20:08:28.949Z,100652.00
2022-12-25T20:10:55.644Z,100633.00
2022-12-25T20:13:22.582Z,100641.00
2022-12-25T20:15:49.266Z,100629.00
2022-12-25T20:18:37.246Z,100643.00
2022-12-25T20:24:18.062Z,100642.00
2022-12-25T20:26:51.483Z,100635.00
2022-12-25T20:29:57.729Z,100618.00
2022-12-25T20:32:54.878Z,100606.00
2022-12-25T20:35:48.056Z,100605.00
2022-12-25T20:38:15.635Z,100613.00
2022-12-25T20:41:25.847Z,100608.00
2022-12-25T20:43:45.734Z,100604.00
2022-12-25T20:46:13.307Z,100597.00
2022-12-25T20:48:45.907Z,100597.00
2022-12-25T20:51:18.678Z,100597.00
2022-12-25T20:53:46.343Z,100587.00
2022-12-25T20:56:15.209Z,100578.00
2022-12-25T20:58:44.562Z,100576.00
2022-12-25T21:01:13.750Z,100578.00
2022-12-25T21:03:41.436Z,100576.00
2022-12-25T21:06:11.721Z,100579.00
2022-12-25T21:08:39.383Z,100577.00
2022-12-25T21:11:06.507Z,100573.00
2022-12-25T21:13:37.147Z,100573.00
2022-12-25T21:16:09.698Z,100566.00
2022-12-25T21:18:36.340Z,100567.00
2022-12-25T21:21:06.627Z,100560.00
2022-12-25T21:23:35.235Z,100561.00
2022-12-25T21:26:13.182Z,100553.00
2022-12-25T21:28:39.712Z,100556.00
2022-12-25T21:31:07.791Z,100557.00
2022-12-25T21:33:53.068Z,100558.00
2022-12-25T21:36:31.858Z,100556.00
2022-12-25T21:39:06.604Z,100551.00
2022-12-25T21:41:37.461Z,100536.00
2022-12-25T21:44:04.597Z,100528.00
2022-12-25T21:46:31.653Z,100531.00
2022-12-25T21:48:59.354Z,100535.00
2022-12-25T21:51:47.668Z,100537.00
2022-12-25T21:54:15.600Z,100532.00
2022-12-25T21:56:45.379Z,100529.00
2022-12-25T21:59:17.759Z,100529.00
2022-12-25T22:01:48.278Z,100530.00
2022-12-25T22:04:16.495Z,100529.00
2022-12-25T22:07:03.306Z,100525.00
2022-12-25T22:09:30.188Z,100527.00
2022-12-25T22:12:15.286Z,100525.00
2022-12-25T22:14:55.251Z,100535.00
2022-12-25T22:17:46.704Z,100537.00
2022-12-25T22:20:28.415Z,100536.00
2022-12-25T22:22:58.518Z,100537.00
2022-12-25T22:25:27.648Z,100537.00
2022-12-25T22:27:57.037Z,100532.00
2022-12-25T22:30:32.523Z,100529.00
2022-12-25T22:32:59.223Z,100532.00
2022-12-25T22:36:02.773Z,100534.00
2022-12-25T22:38:53.023Z,100548.00
2022-12-25T22:42:30.945Z,100523.00
2022-12-25T22:48:08.075Z,100510.00
2022-12-25T22:51:38.134Z,100505.00
2022-12-25T22:54:05.092Z,100501.00
2022-12-25T22:56:46.931Z,100497.00
2022-12-25T22:59:26.764Z,100503.00
2022-12-25T23:02:11.364Z,100501.00
2022-12-25T23:05:14.872Z,100505.00
2022-12-25T23:07:49.132Z,100494.00
2022-12-25T23:10:26.611Z,100508.00
2022-12-25T23:13:11.769Z,100505.00
2022-12-25T23:18:56.112Z,100492.00
2022-12-25T23:21:45.676Z,100502.00
2022-12-25T23:24:31.157Z,100503.00
2022-12-25T23:27:01.306Z,100490.00
2022-12-25T23:29:55.433Z,100493.00
2022-12-25T23:32:27.755Z,100477.00
2022-12-25T23:34:57.084Z,100498.00
2022-12-25T23:37:27.423Z,100482.00
2022-12-25T23:40:03.176Z,100480.00
2022-12-25T23:42:42.962Z,100492.00
2022-12-25T23:45:22.240Z,100502.00
2022-12-25T23:47:53.306Z,100503.00
2022-12-25T23:50:25.503Z,100496.00
2022-12-25T23:56:01.810Z,100488.00
2022-12-25T23:58:46.095Z,100502.00
